Date,TemperatureHighF,TemperatureAvgF,TemperatureLowF,DewpointHighF,DewpointAvgF,DewpointLowF,HumidityHigh,HumidityAvg,HumidityLow,PressureMaxIn,PressureMinIn,WindSpeedMaxMPH,WindSpeedAvgMPH,GustSpeedMaxMPH,PrecipitationSumIn
2013-11-1,78,62,48,51,41,31,86,51,21,30.17,29.88,8,2,12,0.00
2013-11-2,67,57,46,38,30,20,62,38,17,30.38,30.17,8,2,10,0.00
2013-11-3,70,55,41,42,34,29,77,50,23,30.29,30.08,10,3,10,2.20
2013-11-4,61,58,53,61,53,43,100,85,56,30.20,30.08,8,2,9,0.79
2013-11-5,70,66,61,68,64,61,100,96,87,30.14,30.02,6,3,9,0.12
2013-11-6,70,56,46,66,41,28,87,59,33,30.47,30.08,9,4,12,0.08
2013-11-7,63,50,37,35,28,22,79,47,21,30.61,30.47,5,1,6,0.00
2013-11-8,68,54,39,46,33,27,82,49,23,30.50,30.26,8,2,10,0.00
2013-11-9,72,61,55,43,38,34,53,43,31,30.35,30.26,8,3,10,0.00
2013-11-10,67,58,49,44,40,37,75,52,35,30.50,30.35,4,0,4,0.00
2013-11-11,76,59,44,51,42,38,88,59,26,30.44,30.32,4,0,5,0.00
2013-11-12,60,50,37,48,25,6,70,40,18,30.85,30.44,13,5,13,0.00
2013-11-13,53,40,29,18,14,9,57,36,21,30.85,30.56,4,1,5,0.00
2013-11-14,64,49,31,37,21,15,59,36,16,30.56,30.23,8,3,8,0.00
2013-11-15,76,61,55,53,44,37,82,57,27,30.23,30.08,6,6,6,0.00
2013-11-16,81,70,62,64,55,48,84,63,32,30.11,29.93,10,5,13,0.00
2013-11-17,88,75,64,68,45,24,91,44,10,30.29,29.96,8,3,11,0.00
2013-11-18,71,64,56,24,18,15,24,17,14,30.47,30.29,6,3,8,0.00
2013-11-19,70,61,54,30,24,16,36,25,14,30.47,30.32,8,3,8,0.00
2013-11-20,67,58,47,46,34,27,56,41,31,30.35,30.20,6,2,8,0.00
2013-11-21,76,65,42,69,59,37,100,83,59,30.56,30.29,8,3,14,0.39
2013-11-22,42,36,34,35,31,27,94,83,70,30.82,30.56,9,5,15,0.08
2013-11-23,42,38,36,37,30,18,100,74,47,30.91,30.79,9,4,10,0.08
2013-11-24,36,35,33,19,16,12,54,46,40,30.97,30.76,8,3,9,0.00
2013-11-25,38,35,32,36,30,17,97,84,49,30.76,30.56,6,1,9,0.67
2013-11-26,52,42,35,34,25,14,95,57,27,30.82,30.56,9,6,13,0.00
2013-11-27,46,36,29,15,10,2,51,35,19,30.91,30.79,8,3,12,0.00
2013-11-28,56,39,25,24,16,11,61,42,20,30.91,30.82,8,2,9,0.00
2013-11-29,62,44,28,34,24,16,70,48,25,30.97,30.82,6,1,9,0.00
2013-11-30,68,53,40,48,38,28,84,60,33,30.85,30.64,8,4,11,0.00